Strummer — WDF6693 — position and weather

sailwx.info

Track history (hours):
 
Tides and Currents Weather Stations Pressure Air Temp Water Temp Dewpoint Dewpoint Depression Visibility Wind Speed Wind Dir Waves Ship Positions

Strummer

Owner: meyer, louis, cheshire, CT. More information available from US FCC via Universal Licensing System and Coast Guard Vessel Documentation Center.

Last reported at 2015-Jun-29 18:24 UTC. Time now 2015-Jul-03 07:58 UTC.
Position N 41°20' W 071°55'.

Length 11 m.

Type: Sailing vessel. MMSI: 367476890.

Date/timePositionNaut miles runAvg speedWind from/ knotsBaromVisibWave heightAir tempDewpointWater temp
2015-Jun-29 18:24N 41°20' W 071°55'0 0.0
2015-Jun-29 17:33N 41°20' W 071°55'0 0.0
2015-Jun-29 16:33N 41°20' W 071°55'  
2015-Jun-26 17:33N 41°18' W 071°51'7 7.0
2015-Jun-26 16:33N 41°20' W 071°42'21 0.4
2015-Jun-24 16:33N 41°24' W 071°16'27 3.4
2015-Jun-24 08:31N 41°12' W 070°43'9 4.4
2015-Jun-24 06:25N 41°04' W 070°37'4 4.9
2015-Jun-24 05:32N 41°01' W 070°32'  
Track history (hours):
 
Tides and Currents Weather Stations Pressure Air Temp Water Temp Dewpoint Dewpoint Depression Visibility Wind Speed Wind Dir Waves Ship Positions

Strummer

Owner: meyer, louis, cheshire, CT. More information available from US FCC via Universal Licensing System and Coast Guard Vessel Documentation Center.

Last reported at 2015-Jun-29 18:24 UTC. Time now 2015-Jul-03 07:58 UTC.
Position N 41°20' W 071°55'.

Length 11 m.

Type: Sailing vessel. MMSI: 367476890.

Date/timePositionNaut miles runAvg speedWind from/ knotsBaromVisibWave heightAir tempDewpointWater temp
2015-Jun-29 18:24N 41°20' W 071°55'0 0.0
2015-Jun-29 17:33N 41°20' W 071°55'0 0.0
2015-Jun-29 16:33N 41°20' W 071°55'  
2015-Jun-26 17:33N 41°18' W 071°51'7 7.0
2015-Jun-26 16:33N 41°20' W 071°42'21 0.4
2015-Jun-24 16:33N 41°24' W 071°16'27 3.4
2015-Jun-24 08:31N 41°12' W 070°43'9 4.4
2015-Jun-24 06:25N 41°04' W 070°37'4 4.9
2015-Jun-24 05:32N 41°01' W 070°32'  

Dump ship's entire track history